sensor_id;sensor_type;location;lat;lon;timestamp;temperature;humidity
3705;DHT22;1868;48.918;9.438;2024-02-26T00:00:16;9.40;97.40
3705;DHT22;1868;48.918;9.438;2024-02-26T00:02:46;9.30;97.40
3705;DHT22;1868;48.918;9.438;2024-02-26T00:05:15;9.30;97.40
3705;DHT22;1868;48.918;9.438;2024-02-26T00:07:43;9.20;97.40
3705;DHT22;1868;48.918;9.438;2024-02-26T00:10:13;9.10;97.40
3705;DHT22;1868;48.918;9.438;2024-02-26T00:12:43;9.10;97.40
3705;DHT22;1868;48.918;9.438;2024-02-26T00:15:14;9.10;97.40
3705;DHT22;1868;48.918;9.438;2024-02-26T00:17:42;9.10;97.40
3705;DHT22;1868;48.918;9.438;2024-02-26T00:20:13;9.00;97.40
3705;DHT22;1868;48.918;9.438;2024-02-26T00:22:42;9.00;97.40
3705;DHT22;1868;48.918;9.438;2024-02-26T00:25:10;9.00;97.40
3705;DHT22;1868;48.918;9.438;2024-02-26T00:27:40;9.00;97.40
3705;DHT22;1868;48.918;9.438;2024-02-26T00:30:11;9.00;97.40
3705;DHT22;1868;48.918;9.438;2024-02-26T00:32:41;9.00;97.40
3705;DHT22;1868;48.918;9.438;2024-02-26T00:35:11;9.00;97.40
3705;DHT22;1868;48.918;9.438;2024-02-26T00:37:40;8.90;97.40
3705;DHT22;1868;48.918;9.438;2024-02-26T00:40:10;9.00;97.40
3705;DHT22;1868;48.918;9.438;2024-02-26T00:42:39;8.90;97.40
3705;DHT22;1868;48.918;9.438;2024-02-26T00:45:13;8.90;97.40
3705;DHT22;1868;48.918;9.438;2024-02-26T00:47:44;8.90;97.40
3705;DHT22;1868;48.918;9.438;2024-02-26T00:50:15;8.90;97.40
3705;DHT22;1868;48.918;9.438;2024-02-26T00:52:43;8.80;97.40
3705;DHT22;1868;48.918;9.438;2024-02-26T00:55:13;8.80;97.40
3705;DHT22;1868;48.918;9.438;2024-02-26T00:57:46;8.70;97.40
3705;DHT22;1868;48.918;9.438;2024-02-26T01:00:16;8.70;97.40
3705;DHT22;1868;48.918;9.438;2024-02-26T01:02:47;8.60;97.40
3705;DHT22;1868;48.918;9.438;2024-02-26T01:05:15;8.60;97.40
3705;DHT22;1868;48.918;9.438;2024-02-26T01:07:44;8.50;97.40
3705;DHT22;1868;48.918;9.438;2024-02-26T01:10:13;8.50;97.40
3705;DHT22;1868;48.918;9.438;2024-02-26T01:12:43;8.50;97.40
3705;DHT22;1868;48.918;9.438;2024-02-26T01:15:12;8.50;97.40
3705;DHT22;1868;48.918;9.438;2024-02-26T01:17:41;8.50;97.40
3705;DHT22;1868;48.918;9.438;2024-02-26T01:20:12;8.50;97.40
3705;DHT22;1868;48.918;9.438;2024-02-26T01:22:42;8.50;97.40
3705;DHT22;1868;48.918;9.438;2024-02-26T01:25:12;8.50;97.40
3705;DHT22;1868;48.918;9.438;2024-02-26T01:27:41;8.50;97.40
3705;DHT22;1868;48.918;9.438;2024-02-26T01:30:12;8.50;97.40
3705;DHT22;1868;48.918;9.438;2024-02-26T01:32:43;8.40;97.40
3705;DHT22;1868;48.918;9.438;2024-02-26T01:35:14;8.50;97.40
3705;DHT22;1868;48.918;9.438;2024-02-26T01:37:43;8.50;97.40
3705;DHT22;1868;48.918;9.438;2024-02-26T01:40:12;8.50;97.40
3705;DHT22;1868;48.918;9.438;2024-02-26T01:42:45;8.50;97.40
3705;DHT22;1868;48.918;9.438;2024-02-26T01:45:15;8.50;97.40
3705;DHT22;1868;48.918;9.438;2024-02-26T01:47:51;8.50;97.40
3705;DHT22;1868;48.918;9.438;2024-02-26T01:50:22;8.60;97.40
3705;DHT22;1868;48.918;9.438;2024-02-26T01:52:51;8.50;97.40
3705;DHT22;1868;48.918;9.438;2024-02-26T01:55:22;8.50;97.40
3705;DHT22;1868;48.918;9.438;2024-02-26T01:57:52;8.50;97.40
3705;DHT22;1868;48.918;9.438;2024-02-26T02:00:22;8.50;97.40
3705;DHT22;1868;48.918;9.438;2024-02-26T02:02:51;8.50;97.40
3705;DHT22;1868;48.918;9.438;2024-02-26T02:05:23;8.50;97.40
3705;DHT22;1868;48.918;9.438;2024-02-26T02:07:53;8.50;97.40
3705;DHT22;1868;48.918;9.438;2024-02-26T02:10:22;8.40;97.40
3705;DHT22;1868;48.918;9.438;2024-02-26T02:12:53;8.40;97.40
3705;DHT22;1868;48.918;9.438;2024-02-26T02:15:22;8.40;97.40
3705;DHT22;1868;48.918;9.438;2024-02-26T02:17:50;8.40;97.40
3705;DHT22;1868;48.918;9.438;2024-02-26T02:20:26;8.50;97.40
3705;DHT22;1868;48.918;9.438;2024-02-26T02:22:55;8.50;97.40
3705;DHT22;1868;48.918;9.438;2024-02-26T02:25:23;8.50;97.40
3705;DHT22;1868;48.918;9.438;2024-02-26T02:27:53;8.50;97.40
3705;DHT22;1868;48.918;9.438;2024-02-26T02:30:25;8.50;97.40
3705;DHT22;1868;48.918;9.438;2024-02-26T02:32:56;8.40;97.40
3705;DHT22;1868;48.918;9.438;2024-02-26T02:35:27;8.40;97.40
3705;DHT22;1868;48.918;9.438;2024-02-26T02:37:57;8.40;97.40
3705;DHT22;1868;48.918;9.438;2024-02-26T02:40:25;8.40;97.40
3705;DHT22;1868;48.918;9.438;2024-02-26T02:42:54;8.40;97.40
3705;DHT22;1868;48.918;9.438;2024-02-26T02:45:23;8.40;97.40
3705;DHT22;1868;48.918;9.438;2024-02-26T02:47:52;8.40;97.40
3705;DHT22;1868;48.918;9.438;2024-02-26T02:50:21;8.40;97.40
3705;DHT22;1868;48.918;9.438;2024-02-26T02:52:51;8.40;97.40
3705;DHT22;1868;48.918;9.438;2024-02-26T02:55:20;8.40;97.40
3705;DHT22;1868;48.918;9.438;2024-02-26T02:57:51;8.40;97.40
3705;DHT22;1868;48.918;9.438;2024-02-26T03:00:20;8.40;97.40
3705;DHT22;1868;48.918;9.438;2024-02-26T03:02:50;8.30;97.40
3705;DHT22;1868;48.918;9.438;2024-02-26T03:05:19;8.30;97.40
3705;DHT22;1868;48.918;9.438;2024-02-26T03:07:48;8.30;97.40
3705;DHT22;1868;48.918;9.438;2024-02-26T03:10:18;8.30;97.40
3705;DHT22;1868;48.918;9.438;2024-02-26T03:12:47;8.30;97.40
3705;DHT22;1868;48.918;9.438;2024-02-26T03:15:16;8.30;97.40
3705;DHT22;1868;48.918;9.438;2024-02-26T03:17:47;8.30;97.40
3705;DHT22;1868;48.918;9.438;2024-02-26T03:20:16;8.30;97.40
3705;DHT22;1868;48.918;9.438;2024-02-26T03:22:47;8.40;97.40
3705;DHT22;1868;48.918;9.438;2024-02-26T03:25:18;8.40;97.40
3705;DHT22;1868;48.918;9.438;2024-02-26T03:27:46;8.30;97.40
3705;DHT22;1868;48.918;9.438;2024-02-26T03:30:15;8.30;97.40
3705;DHT22;1868;48.918;9.438;2024-02-26T03:32:44;8.30;97.40
3705;DHT22;1868;48.918;9.438;2024-02-26T03:35:14;8.40;97.40
3705;DHT22;1868;48.918;9.438;2024-02-26T03:37:43;8.40;97.40
3705;DHT22;1868;48.918;9.438;2024-02-26T03:40:14;8.40;97.40
3705;DHT22;1868;48.918;9.438;2024-02-26T03:42:45;8.40;97.40
3705;DHT22;1868;48.918;9.438;2024-02-26T03:45:14;8.40;97.40
3705;DHT22;1868;48.918;9.438;2024-02-26T03:47:43;8.40;97.40
3705;DHT22;1868;48.918;9.438;2024-02-26T03:50:12;8.40;97.40
3705;DHT22;1868;48.918;9.438;2024-02-26T03:52:41;8.40;97.40
3705;DHT22;1868;48.918;9.438;2024-02-26T03:55:09;8.40;97.40
3705;DHT22;1868;48.918;9.438;2024-02-26T03:57:38;8.40;97.40
3705;DHT22;1868;48.918;9.438;2024-02-26T04:00:10;8.40;97.40
3705;DHT22;1868;48.918;9.438;2024-02-26T04:02:40;8.30;97.40
3705;DHT22;1868;48.918;9.438;2024-02-26T04:05:10;8.20;97.40
3705;DHT22;1868;48.918;9.438;2024-02-26T04:07:39;8.30;97.40
3705;DHT22;1868;48.918;9.438;2024-02-26T04:10:11;8.20;97.40
3705;DHT22;1868;48.918;9.438;2024-02-26T04:12:41;8.20;97.40
3705;DHT22;1868;48.918;9.438;2024-02-26T04:15:12;8.10;97.40
3705;DHT22;1868;48.918;9.438;2024-02-26T04:17:41;8.10;97.40
3705;DHT22;1868;48.918;9.438;2024-02-26T04:20:14;8.00;97.40
3705;DHT22;1868;48.918;9.438;2024-02-26T04:22:45;8.00;97.40
3705;DHT22;1868;48.918;9.438;2024-02-26T04:25:15;7.90;97.40
3705;DHT22;1868;48.918;9.438;2024-02-26T04:27:43;7.80;97.40
3705;DHT22;1868;48.918;9.438;2024-02-26T04:30:16;7.80;97.40
3705;DHT22;1868;48.918;9.438;2024-02-26T04:32:45;7.80;97.40
3705;DHT22;1868;48.918;9.438;2024-02-26T04:35:14;7.80;97.40
3705;DHT22;1868;48.918;9.438;2024-02-26T04:37:43;7.80;97.40
3705;DHT22;1868;48.918;9.438;2024-02-26T04:40:13;7.80;97.40
3705;DHT22;1868;48.918;9.438;2024-02-26T04:42:42;7.80;97.40
3705;DHT22;1868;48.918;9.438;2024-02-26T04:45:10;7.80;97.40
3705;DHT22;1868;48.918;9.438;2024-02-26T04:47:41;7.80;97.40
3705;DHT22;1868;48.918;9.438;2024-02-26T04:50:10;7.70;97.40
3705;DHT22;1868;48.918;9.438;2024-02-26T04:52:39;7.70;97.40
3705;DHT22;1868;48.918;9.438;2024-02-26T04:55:07;7.70;97.40
3705;DHT22;1868;48.918;9.438;2024-02-26T04:57:36;7.70;97.40
3705;DHT22;1868;48.918;9.438;2024-02-26T05:00:07;7.70;97.40
3705;DHT22;1868;48.918;9.438;2024-02-26T05:02:37;7.70;97.40
3705;DHT22;1868;48.918;9.438;2024-02-26T05:05:08;7.60;97.40
3705;DHT22;1868;48.918;9.438;2024-02-26T05:07:39;7.60;97.40
3705;DHT22;1868;48.918;9.438;2024-02-26T05:10:10;7.60;97.40
3705;DHT22;1868;48.918;9.438;2024-02-26T05:12:40;7.60;97.40
3705;DHT22;1868;48.918;9.438;2024-02-26T05:15:10;7.60;97.40
3705;DHT22;1868;48.918;9.438;2024-02-26T05:17:45;7.60;97.40
3705;DHT22;1868;48.918;9.438;2024-02-26T05:20:16;7.60;97.40
3705;DHT22;1868;48.918;9.438;2024-02-26T05:22:45;7.60;97.40
3705;DHT22;1868;48.918;9.438;2024-02-26T05:25:15;7.60;97.40
3705;DHT22;1868;48.918;9.438;2024-02-26T05:27:44;7.60;97.40
3705;DHT22;1868;48.918;9.438;2024-02-26T05:30:14;7.60;97.40
3705;DHT22;1868;48.918;9.438;2024-02-26T05:32:44;7.60;97.40
3705;DHT22;1868;48.918;9.438;2024-02-26T05:35:13;7.60;97.40
3705;DHT22;1868;48.918;9.438;2024-02-26T05:37:44;7.60;97.40
3705;DHT22;1868;48.918;9.438;2024-02-26T05:40:13;7.60;97.40
3705;DHT22;1868;48.918;9.438;2024-02-26T05:42:42;7.60;97.40
3705;DHT22;1868;48.918;9.438;2024-02-26T05:45:12;7.60;97.40
3705;DHT22;1868;48.918;9.438;2024-02-26T05:47:44;7.60;97.40
3705;DHT22;1868;48.918;9.438;2024-02-26T05:50:13;7.60;97.40
3705;DHT22;1868;48.918;9.438;2024-02-26T05:52:44;7.60;97.40
3705;DHT22;1868;48.918;9.438;2024-02-26T05:55:13;7.60;97.40
3705;DHT22;1868;48.918;9.438;2024-02-26T05:57:41;7.70;97.40
3705;DHT22;1868;48.918;9.438;2024-02-26T06:00:11;7.60;97.40
3705;DHT22;1868;48.918;9.438;2024-02-26T06:02:42;7.70;97.40
3705;DHT22;1868;48.918;9.438;2024-02-26T06:05:12;7.70;97.40
3705;DHT22;1868;48.918;9.438;2024-02-26T06:07:40;7.70;97.40
3705;DHT22;1868;48.918;9.438;2024-02-26T06:10:13;7.70;97.40
3705;DHT22;1868;48.918;9.438;2024-02-26T06:12:43;7.70;97.40
3705;DHT22;1868;48.918;9.438;2024-02-26T06:15:12;7.80;97.40
3705;DHT22;1868;48.918;9.438;2024-02-26T06:17:41;7.80;97.40
3705;DHT22;1868;48.918;9.438;2024-02-26T06:20:11;7.80;97.40
3705;DHT22;1868;48.918;9.438;2024-02-26T06:22:40;7.80;97.40
3705;DHT22;1868;48.918;9.438;2024-02-26T06:25:10;7.80;97.40
3705;DHT22;1868;48.918;9.438;2024-02-26T06:27:40;7.80;97.40
3705;DHT22;1868;48.918;9.438;2024-02-26T06:30:09;7.90;97.40
3705;DHT22;1868;48.918;9.438;2024-02-26T06:32:39;7.90;97.40
3705;DHT22;1868;48.918;9.438;2024-02-26T06:35:09;7.90;97.40
3705;DHT22;1868;48.918;9.438;2024-02-26T06:37:39;7.90;97.40
3705;DHT22;1868;48.918;9.438;2024-02-26T06:40:08;7.90;97.40
3705;DHT22;1868;48.918;9.438;2024-02-26T06:42:39;7.90;97.40
3705;DHT22;1868;48.918;9.438;2024-02-26T06:45:08;7.90;97.40
3705;DHT22;1868;48.918;9.438;2024-02-26T06:47:38;7.90;97.40
3705;DHT22;1868;48.918;9.438;2024-02-26T06:50:08;7.80;97.40
3705;DHT22;1868;48.918;9.438;2024-02-26T06:52:37;7.80;97.40
3705;DHT22;1868;48.918;9.438;2024-02-26T06:55:06;7.80;97.40
3705;DHT22;1868;48.918;9.438;2024-02-26T06:57:35;7.80;97.40
3705;DHT22;1868;48.918;9.438;2024-02-26T07:00:08;7.80;97.40
3705;DHT22;1868;48.918;9.438;2024-02-26T07:02:41;7.80;97.40
3705;DHT22;1868;48.918;9.438;2024-02-26T07:05:12;7.80;97.40
3705;DHT22;1868;48.918;9.438;2024-02-26T07:07:41;7.80;97.40
3705;DHT22;1868;48.918;9.438;2024-02-26T07:10:10;7.80;97.40
3705;DHT22;1868;48.918;9.438;2024-02-26T07:12:39;7.90;97.40
3705;DHT22;1868;48.918;9.438;2024-02-26T07:15:10;7.90;97.40
3705;DHT22;1868;48.918;9.438;2024-02-26T07:17:39;7.90;97.40
3705;DHT22;1868;48.918;9.438;2024-02-26T07:20:14;7.90;97.40
3705;DHT22;1868;48.918;9.438;2024-02-26T07:22:45;8.00;97.40
3705;DHT22;1868;48.918;9.438;2024-02-26T07:25:13;8.00;97.40
3705;DHT22;1868;48.918;9.438;2024-02-26T07:27:43;7.90;97.40
3705;DHT22;1868;48.918;9.438;2024-02-26T07:30:14;7.90;97.40
3705;DHT22;1868;48.918;9.438;2024-02-26T07:32:43;8.00;97.40
3705;DHT22;1868;48.918;9.438;2024-02-26T07:35:17;8.00;97.40
3705;DHT22;1868;48.918;9.438;2024-02-26T07:37:48;8.00;97.40
3705;DHT22;1868;48.918;9.438;2024-02-26T07:40:17;8.10;97.40
3705;DHT22;1868;48.918;9.438;2024-02-26T07:42:46;8.10;97.40
3705;DHT22;1868;48.918;9.438;2024-02-26T07:45:16;8.10;97.40
3705;DHT22;1868;48.918;9.438;2024-02-26T07:47:47;8.20;97.40
3705;DHT22;1868;48.918;9.438;2024-02-26T07:50:16;8.30;97.40
3705;DHT22;1868;48.918;9.438;2024-02-26T07:52:45;8.30;97.40
3705;DHT22;1868;48.918;9.438;2024-02-26T07:55:13;8.40;97.40
3705;DHT22;1868;48.918;9.438;2024-02-26T07:57:42;8.40;97.40
3705;DHT22;1868;48.918;9.438;2024-02-26T08:00:16;8.50;97.40
3705;DHT22;1868;48.918;9.438;2024-02-26T08:02:46;8.50;97.40
3705;DHT22;1868;48.918;9.438;2024-02-26T08:05:15;8.60;97.40
3705;DHT22;1868;48.918;9.438;2024-02-26T08:07:44;8.60;97.40
3705;DHT22;1868;48.918;9.438;2024-02-26T08:10:15;8.70;97.40
3705;DHT22;1868;48.918;9.438;2024-02-26T08:12:46;8.70;97.40
3705;DHT22;1868;48.918;9.438;2024-02-26T08:15:20;8.80;97.40
3705;DHT22;1868;48.918;9.438;2024-02-26T08:17:49;8.80;97.40
3705;DHT22;1868;48.918;9.438;2024-02-26T08:20:18;8.90;97.40
3705;DHT22;1868;48.918;9.438;2024-02-26T08:22:48;9.00;97.40
3705;DHT22;1868;48.918;9.438;2024-02-26T08:25:18;9.10;97.40
3705;DHT22;1868;48.918;9.438;2024-02-26T08:27:46;9.10;97.40
3705;DHT22;1868;48.918;9.438;2024-02-26T08:30:16;9.20;97.40
3705;DHT22;1868;48.918;9.438;2024-02-26T08:32:48;9.20;97.40
3705;DHT22;1868;48.918;9.438;2024-02-26T08:35:18;9.30;97.40
3705;DHT22;1868;48.918;9.438;2024-02-26T08:37:48;9.30;97.40
3705;DHT22;1868;48.918;9.438;2024-02-26T08:40:17;9.40;97.40
3705;DHT22;1868;48.918;9.438;2024-02-26T08:42:46;9.40;97.40
3705;DHT22;1868;48.918;9.438;2024-02-26T08:45:16;9.50;97.40
3705;DHT22;1868;48.918;9.438;2024-02-26T08:47:44;9.50;97.40
3705;DHT22;1868;48.918;9.438;2024-02-26T08:50:19;9.50;97.40
3705;DHT22;1868;48.918;9.438;2024-02-26T08:52:47;9.50;97.40
3705;DHT22;1868;48.918;9.438;2024-02-26T08:55:18;9.50;97.40
3705;DHT22;1868;48.918;9.438;2024-02-26T08:57:47;9.60;97.40
3705;DHT22;1868;48.918;9.438;2024-02-26T09:00:17;9.70;97.40
3705;DHT22;1868;48.918;9.438;2024-02-26T09:02:49;9.80;97.40
3705;DHT22;1868;48.918;9.438;2024-02-26T09:05:19;9.80;97.40
3705;DHT22;1868;48.918;9.438;2024-02-26T09:07:48;9.90;97.40
3705;DHT22;1868;48.918;9.438;2024-02-26T09:10:18;10.00;97.40
3705;DHT22;1868;48.918;9.438;2024-02-26T09:12:48;10.10;97.40
3705;DHT22;1868;48.918;9.438;2024-02-26T09:15:17;10.20;97.40
3705;DHT22;1868;48.918;9.438;2024-02-26T09:17:46;10.30;97.40
3705;DHT22;1868;48.918;9.438;2024-02-26T09:20:19;10.50;97.40
3705;DHT22;1868;48.918;9.438;2024-02-26T09:22:49;10.60;97.40
3705;DHT22;1868;48.918;9.438;2024-02-26T09:25:17;10.70;97.40
3705;DHT22;1868;48.918;9.438;2024-02-26T09:27:46;10.80;97.40
3705;DHT22;1868;48.918;9.438;2024-02-26T09:30:15;10.90;97.40
3705;DHT22;1868;48.918;9.438;2024-02-26T09:32:46;10.90;97.40
3705;DHT22;1868;48.918;9.438;2024-02-26T09:35:17;11.00;97.40
3705;DHT22;1868;48.918;9.438;2024-02-26T09:37:48;11.00;97.40
3705;DHT22;1868;48.918;9.438;2024-02-26T09:40:17;11.00;97.40
3705;DHT22;1868;48.918;9.438;2024-02-26T09:42:46;11.10;97.40
3705;DHT22;1868;48.918;9.438;2024-02-26T09:45:18;11.20;97.40
3705;DHT22;1868;48.918;9.438;2024-02-26T09:47:48;11.20;97.40
3705;DHT22;1868;48.918;9.438;2024-02-26T09:50:20;11.20;97.40
3705;DHT22;1868;48.918;9.438;2024-02-26T09:52:51;11.30;97.40
3705;DHT22;1868;48.918;9.438;2024-02-26T09:55:21;11.30;97.40
3705;DHT22;1868;48.918;9.438;2024-02-26T09:57:51;11.30;97.40
3705;DHT22;1868;48.918;9.438;2024-02-26T10:00:22;11.40;97.40
3705;DHT22;1868;48.918;9.438;2024-02-26T10:02:51;11.40;97.40
3705;DHT22;1868;48.918;9.438;2024-02-26T10:05:23;11.50;97.40
3705;DHT22;1868;48.918;9.438;2024-02-26T10:07:53;11.50;97.40
3705;DHT22;1868;48.918;9.438;2024-02-26T10:10:24;11.60;97.40
3705;DHT22;1868;48.918;9.438;2024-02-26T10:12:54;11.60;97.40
3705;DHT22;1868;48.918;9.438;2024-02-26T10:15:23;11.70;97.40
3705;DHT22;1868;48.918;9.438;2024-02-26T10:17:52;11.70;97.40
3705;DHT22;1868;48.918;9.438;2024-02-26T10:20:23;11.80;97.40
3705;DHT22;1868;48.918;9.438;2024-02-26T10:22:54;12.00;97.40
3705;DHT22;1868;48.918;9.438;2024-02-26T10:25:24;12.10;97.40
3705;DHT22;1868;48.918;9.438;2024-02-26T10:27:53;12.20;97.40
3705;DHT22;1868;48.918;9.438;2024-02-26T10:30:23;12.40;97.40
3705;DHT22;1868;48.918;9.438;2024-02-26T10:32:54;12.60;97.40
3705;DHT22;1868;48.918;9.438;2024-02-26T10:35:25;12.90;97.40
3705;DHT22;1868;48.918;9.438;2024-02-26T10:37:56;13.10;97.40
3705;DHT22;1868;48.918;9.438;2024-02-26T10:40:26;13.50;97.40
3705;DHT22;1868;48.918;9.438;2024-02-26T10:42:54;14.00;97.40
3705;DHT22;1868;48.918;9.438;2024-02-26T10:45:23;14.70;97.40
3705;DHT22;1868;48.918;9.438;2024-02-26T10:47:53;15.40;97.40
3705;DHT22;1868;48.918;9.438;2024-02-26T10:50:22;16.10;97.40
3705;DHT22;1868;48.918;9.438;2024-02-26T10:52:55;16.90;97.40
3705;DHT22;1868;48.918;9.438;2024-02-26T10:55:24;17.70;97.40
3705;DHT22;1868;48.918;9.438;2024-02-26T10:57:54;18.60;97.40
3705;DHT22;1868;48.918;9.438;2024-02-26T11:00:24;19.50;97.40
3705;DHT22;1868;48.918;9.438;2024-02-26T11:02:54;20.30;94.90
3705;DHT22;1868;48.918;9.438;2024-02-26T11:05:28;21.00;92.80
3705;DHT22;1868;48.918;9.438;2024-02-26T11:07:57;21.70;90.90
3705;DHT22;1868;48.918;9.438;2024-02-26T11:10:27;22.40;91.10
3705;DHT22;1868;48.918;9.438;2024-02-26T11:12:59;22.80;90.10
3705;DHT22;1868;48.918;9.438;2024-02-26T11:15:33;22.80;87.30
3705;DHT22;1868;48.918;9.438;2024-02-26T11:18:06;22.90;80.60
3705;DHT22;1868;48.918;9.438;2024-02-26T11:20:40;23.10;85.50
3705;DHT22;1868;48.918;9.438;2024-02-26T11:23:09;23.30;81.20
3705;DHT22;1868;48.918;9.438;2024-02-26T11:25:38;23.10;79.50
3705;DHT22;1868;48.918;9.438;2024-02-26T11:28:10;22.90;82.80
3705;DHT22;1868;48.918;9.438;2024-02-26T11:30:45;22.90;81.70
3705;DHT22;1868;48.918;9.438;2024-02-26T11:33:16;23.10;81.50
3705;DHT22;1868;48.918;9.438;2024-02-26T11:35:46;23.40;79.70
3705;DHT22;1868;48.918;9.438;2024-02-26T11:38:20;23.70;78.90
3705;DHT22;1868;48.918;9.438;2024-02-26T11:40:52;23.50;79.10
3705;DHT22;1868;48.918;9.438;2024-02-26T11:43:23;23.10;78.70
3705;DHT22;1868;48.918;9.438;2024-02-26T11:46:26;22.70;78.90
3705;DHT22;1868;48.918;9.438;2024-02-26T11:48:59;22.20;81.00
3705;DHT22;1868;48.918;9.438;2024-02-26T11:51:34;22.10;82.30
3705;DHT22;1868;48.918;9.438;2024-02-26T11:54:03;21.80;80.80
3705;DHT22;1868;48.918;9.438;2024-02-26T11:56:34;21.50;82.50
3705;DHT22;1868;48.918;9.438;2024-02-26T11:59:05;21.20;82.10
3705;DHT22;1868;48.918;9.438;2024-02-26T12:01:43;20.90;85.50
3705;DHT22;1868;48.918;9.438;2024-02-26T12:04:14;20.60;86.80
3705;DHT22;1868;48.918;9.438;2024-02-26T12:06:50;20.30;84.00
3705;DHT22;1868;48.918;9.438;2024-02-26T12:09:33;19.90;87.50
3705;DHT22;1868;48.918;9.438;2024-02-26T12:12:07;19.80;89.60
3705;DHT22;1868;48.918;9.438;2024-02-26T12:14:51;19.60;90.50
3705;DHT22;1868;48.918;9.438;2024-02-26T12:17:22;19.50;90.60
3705;DHT22;1868;48.918;9.438;2024-02-26T12:19:52;19.40;89.90
3705;DHT22;1868;48.918;9.438;2024-02-26T12:22:27;19.30;89.90
3705;DHT22;1868;48.918;9.438;2024-02-26T12:24:58;19.30;90.60
3705;DHT22;1868;48.918;9.438;2024-02-26T12:27:28;19.40;90.80
3705;DHT22;1868;48.918;9.438;2024-02-26T12:29:57;19.40;91.00
3705;DHT22;1868;48.918;9.438;2024-02-26T12:32:26;19.30;91.20
3705;DHT22;1868;48.918;9.438;2024-02-26T12:34:54;19.40;91.20
3705;DHT22;1868;48.918;9.438;2024-02-26T12:37:25;19.40;90.30
3705;DHT22;1868;48.918;9.438;2024-02-26T12:39:53;19.40;90.50
3705;DHT22;1868;48.918;9.438;2024-02-26T12:42:22;19.50;89.90
3705;DHT22;1868;48.918;9.438;2024-02-26T12:44:52;19.50;85.80
3705;DHT22;1868;48.918;9.438;2024-02-26T12:47:21;19.40;87.10
3705;DHT22;1868;48.918;9.438;2024-02-26T12:49:50;19.30;87.70
3705;DHT22;1868;48.918;9.438;2024-02-26T12:52:20;19.20;88.40
3705;DHT22;1868;48.918;9.438;2024-02-26T12:54:52;19.00;89.70
3705;DHT22;1868;48.918;9.438;2024-02-26T12:57:21;18.70;90.80
3705;DHT22;1868;48.918;9.438;2024-02-26T12:59:51;18.60;92.10
3705;DHT22;1868;48.918;9.438;2024-02-26T13:02:20;18.50;92.10
3705;DHT22;1868;48.918;9.438;2024-02-26T13:04:50;18.40;91.90
3705;DHT22;1868;48.918;9.438;2024-02-26T13:07:20;18.40;92.10
3705;DHT22;1868;48.918;9.438;2024-02-26T13:09:49;18.40;92.50
3705;DHT22;1868;48.918;9.438;2024-02-26T13:12:20;18.50;93.20
3705;DHT22;1868;48.918;9.438;2024-02-26T13:14:59;18.60;93.00
3705;DHT22;1868;48.918;9.438;2024-02-26T13:17:31;18.70;92.00
3705;DHT22;1868;48.918;9.438;2024-02-26T13:20:01;18.70;92.00
3705;DHT22;1868;48.918;9.438;2024-02-26T13:22:33;18.80;91.60
3705;DHT22;1868;48.918;9.438;2024-02-26T13:25:02;18.80;92.50
3705;DHT22;1868;48.918;9.438;2024-02-26T13:27:33;18.80;93.00
3705;DHT22;1868;48.918;9.438;2024-02-26T13:30:09;18.80;92.30
3705;DHT22;1868;48.918;9.438;2024-02-26T13:32:40;18.70;92.40
3705;DHT22;1868;48.918;9.438;2024-02-26T13:35:12;18.70;91.50
3705;DHT22;1868;48.918;9.438;2024-02-26T13:37:41;18.60;92.40
3705;DHT22;1868;48.918;9.438;2024-02-26T13:40:11;18.50;92.40
3705;DHT22;1868;48.918;9.438;2024-02-26T13:42:42;18.40;92.80
3705;DHT22;1868;48.918;9.438;2024-02-26T13:45:11;18.30;92.10
3705;DHT22;1868;48.918;9.438;2024-02-26T13:47:40;18.20;92.00
3705;DHT22;1868;48.918;9.438;2024-02-26T13:50:11;18.10;93.40
3705;DHT22;1868;48.918;9.438;2024-02-26T13:52:39;18.00;92.70
3705;DHT22;1868;48.918;9.438;2024-02-26T13:55:08;17.90;93.70
3705;DHT22;1868;48.918;9.438;2024-02-26T13:57:37;17.80;93.60
3705;DHT22;1868;48.918;9.438;2024-02-26T14:00:09;17.80;93.50
3705;DHT22;1868;48.918;9.438;2024-02-26T14:02:39;17.80;93.80
3705;DHT22;1868;48.918;9.438;2024-02-26T14:05:09;17.80;93.60
3705;DHT22;1868;48.918;9.438;2024-02-26T14:07:39;17.90;94.40
3705;DHT22;1868;48.918;9.438;2024-02-26T14:10:10;17.90;94.80
3705;DHT22;1868;48.918;9.438;2024-02-26T14:12:41;17.90;95.40
3705;DHT22;1868;48.918;9.438;2024-02-26T14:15:12;18.10;94.50
3705;DHT22;1868;48.918;9.438;2024-02-26T14:17:40;18.20;93.50
3705;DHT22;1868;48.918;9.438;2024-02-26T14:20:11;18.30;92.90
3705;DHT22;1868;48.918;9.438;2024-02-26T14:22:40;18.50;92.90
3705;DHT22;1868;48.918;9.438;2024-02-26T14:25:09;18.70;93.40
3705;DHT22;1868;48.918;9.438;2024-02-26T14:27:38;19.10;93.90
3705;DHT22;1868;48.918;9.438;2024-02-26T14:30:08;19.50;92.60
3705;DHT22;1868;48.918;9.438;2024-02-26T14:32:41;19.80;92.00
3705;DHT22;1868;48.918;9.438;2024-02-26T14:35:11;20.10;91.50
3705;DHT22;1868;48.918;9.438;2024-02-26T14:37:43;20.30;89.90
3705;DHT22;1868;48.918;9.438;2024-02-26T14:40:15;20.10;89.20
3705;DHT22;1868;48.918;9.438;2024-02-26T14:42:44;19.90;89.60
3705;DHT22;1868;48.918;9.438;2024-02-26T14:45:15;19.70;90.10
3705;DHT22;1868;48.918;9.438;2024-02-26T14:47:46;19.40;90.30
3705;DHT22;1868;48.918;9.438;2024-02-26T14:50:15;19.20;90.90
3705;DHT22;1868;48.918;9.438;2024-02-26T14:52:44;19.20;91.10
3705;DHT22;1868;48.918;9.438;2024-02-26T14:55:13;19.20;91.80
3705;DHT22;1868;48.918;9.438;2024-02-26T14:57:42;19.30;90.90
3705;DHT22;1868;48.918;9.438;2024-02-26T15:00:11;19.10;91.50
3705;DHT22;1868;48.918;9.438;2024-02-26T15:02:40;18.80;90.90
3705;DHT22;1868;48.918;9.438;2024-02-26T15:05:11;18.70;91.20
3705;DHT22;1868;48.918;9.438;2024-02-26T15:07:40;18.60;91.80
3705;DHT22;1868;48.918;9.438;2024-02-26T15:10:09;18.50;92.00
3705;DHT22;1868;48.918;9.438;2024-02-26T15:12:38;18.40;91.90
3705;DHT22;1868;48.918;9.438;2024-02-26T15:15:08;18.30;92.80
3705;DHT22;1868;48.918;9.438;2024-02-26T15:17:37;18.20;93.00
3705;DHT22;1868;48.918;9.438;2024-02-26T15:20:07;18.00;92.60
3705;DHT22;1868;48.918;9.438;2024-02-26T15:22:39;17.80;93.20
3705;DHT22;1868;48.918;9.438;2024-02-26T15:25:08;17.60;92.80
3705;DHT22;1868;48.918;9.438;2024-02-26T15:27:41;17.40;92.90
3705;DHT22;1868;48.918;9.438;2024-02-26T15:30:11;17.10;93.10
3705;DHT22;1868;48.918;9.438;2024-02-26T15:32:40;16.90;93.30
3705;DHT22;1868;48.918;9.438;2024-02-26T15:35:10;16.70;92.70
3705;DHT22;1868;48.918;9.438;2024-02-26T15:37:41;16.50;92.70
3705;DHT22;1868;48.918;9.438;2024-02-26T15:40:11;16.30;93.40
3705;DHT22;1868;48.918;9.438;2024-02-26T15:42:40;16.10;92.60
3705;DHT22;1868;48.918;9.438;2024-02-26T15:45:09;15.90;93.60
3705;DHT22;1868;48.918;9.438;2024-02-26T15:47:38;15.70;93.40
3705;DHT22;1868;48.918;9.438;2024-02-26T15:50:08;15.60;93.60
3705;DHT22;1868;48.918;9.438;2024-02-26T15:52:37;15.40;94.30
3705;DHT22;1868;48.918;9.438;2024-02-26T15:55:11;15.20;94.30
3705;DHT22;1868;48.918;9.438;2024-02-26T15:57:45;15.00;94.70
3705;DHT22;1868;48.918;9.438;2024-02-26T16:00:14;14.90;94.40
3705;DHT22;1868;48.918;9.438;2024-02-26T16:02:47;14.70;94.70
3705;DHT22;1868;48.918;9.438;2024-02-26T16:05:17;14.60;95.00
3705;DHT22;1868;48.918;9.438;2024-02-26T16:07:51;14.50;95.40
3705;DHT22;1868;48.918;9.438;2024-02-26T16:10:25;14.40;95.50
3705;DHT22;1868;48.918;9.438;2024-02-26T16:12:57;14.20;95.40
3705;DHT22;1868;48.918;9.438;2024-02-26T16:15:27;14.10;96.00
3705;DHT22;1868;48.918;9.438;2024-02-26T16:17:59;14.00;96.40
3705;DHT22;1868;48.918;9.438;2024-02-26T16:20:28;14.00;97.00
3705;DHT22;1868;48.918;9.438;2024-02-26T16:23:00;13.90;97.30
3705;DHT22;1868;48.918;9.438;2024-02-26T16:25:35;13.70;97.40
3705;DHT22;1868;48.918;9.438;2024-02-26T16:28:04;13.70;97.40